Time;durP1;ratioP1;P1;durP2;ratioP2;P2;SDS_P1;SDS_P2;PMS_P1;PMS_P2;Temp;Humidity;BMP_temperature;BMP_pressure;BME280_temperature;BME280_humidity;BME280_pressure;Samples;Min_cycle;Max_cycle;Signal;HPM_P1;HPM_P2
2023/05/26 00:01:20;;;;;;;11.53;8.27;;;12.90;99.90;;;;;;5045842;28;20440;-61
2023/05/26 00:03:48;;;;;;;16.33;8.30;;;12.80;99.90;;;;;;5040877;28;20433;-62
2023/05/26 00:06:14;;;;;;;14.70;8.40;;;12.80;99.90;;;;;;5047406;28;20485;-61
2023/05/26 00:08:40;;;;;;;17.10;8.57;;;12.80;99.90;;;;;;5040145;28;21139;-61
2023/05/26 00:11:07;;;;;;;11.23;7.60;;;12.70;99.90;;;;;;5046958;28;20479;-62
2023/05/26 00:13:33;;;;;;;18.90;8.90;;;12.60;99.90;;;;;;5041070;28;21000;-62
2023/05/26 00:16:00;;;;;;;12.63;8.27;;;12.60;99.90;;;;;;5047301;28;20487;-61
2023/05/26 00:18:26;;;;;;;14.07;8.87;;;12.60;99.90;;;;;;5049226;28;20528;-61
2023/05/26 00:20:55;;;;;;;14.77;9.40;;;12.50;99.90;;;;;;5045729;28;20927;-61
2023/05/26 00:23:21;;;;;;;22.60;8.93;;;12.50;99.90;;;;;;5045433;28;20426;-61
2023/05/26 00:25:48;;;;;;;12.10;8.47;;;12.50;99.90;;;;;;5041430;28;20840;-61
2023/05/26 00:28:14;;;;;;;15.67;8.70;;;12.40;99.90;;;;;;5047120;28;20523;-61
2023/05/26 00:30:40;;;;;;;15.50;9.90;;;12.40;99.90;;;;;;5042950;28;20540;-62
2023/05/26 00:33:05;;;;;;;11.23;8.80;;;12.40;99.90;;;;;;5042181;28;20190;-61
2023/05/26 00:35:31;;;;;;;15.33;9.20;;;12.30;99.90;;;;;;5047888;28;20766;-62
2023/05/26 00:37:56;;;;;;;13.30;8.47;;;12.30;99.90;;;;;;5047345;28;20175;-61
2023/05/26 00:40:22;;;;;;;12.93;8.60;;;12.30;99.90;;;;;;5035665;28;20230;-62
2023/05/26 00:42:48;;;;;;;16.70;8.87;;;12.20;99.90;;;;;;5044963;28;20175;-62
2023/05/26 00:45:13;;;;;;;14.17;9.00;;;12.20;99.90;;;;;;5046733;28;20210;-63
2023/05/26 00:47:39;;;;;;;14.37;8.20;;;12.10;99.90;;;;;;5042938;28;21958;-62
2023/05/26 00:50:06;;;;;;;16.83;8.80;;;12.10;99.90;;;;;;5045834;28;20203;-61
2023/05/26 00:52:33;;;;;;;13.50;8.97;;;12.00;99.90;;;;;;5041804;28;20191;-61
2023/05/26 00:54:59;;;;;;;13.70;8.53;;;12.00;99.90;;;;;;5043891;28;22398;-61
2023/05/26 00:57:27;;;;;;;18.97;9.37;;;12.00;99.90;;;;;;5046521;28;20624;-62
2023/05/26 00:59:55;;;;;;;13.80;8.97;;;12.00;99.90;;;;;;5047653;28;21137;-61
2023/05/26 01:02:22;;;;;;;13.30;9.00;;;12.00;99.90;;;;;;5043391;28;20528;-60
2023/05/26 01:04:52;;;;;;;17.53;8.70;;;11.90;99.90;;;;;;5043564;28;20430;-60
2023/05/26 01:07:18;;;;;;;11.63;8.30;;;11.90;99.90;;;;;;5046521;28;20500;-62
2023/05/26 01:09:44;;;;;;;11.50;8.50;;;11.90;99.90;;;;;;5043512;28;20446;-62
2023/05/26 01:12:16;;;;;;;17.87;9.77;;;11.90;99.90;;;;;;5043387;28;20527;-60
2023/05/26 01:14:48;;;;;;;17.03;9.33;;;11.90;99.90;;;;;;5042301;28;21932;-62
2023/05/26 01:17:44;;;;;;;15.70;8.73;;;11.80;99.90;;;;;;5043153;28;21087;-61
2023/05/26 01:20:31;;;;;;;11.97;8.40;;;11.80;99.90;;;;;;5004924;28;20461;-62
2023/05/26 01:23:17;;;;;;;15.13;9.43;;;11.80;99.90;;;;;;5041235;28;20503;-62
2023/05/26 01:26:13;;;;;;;18.47;9.03;;;11.80;99.90;;;;;;5038429;28;20820;-62
2023/05/26 01:28:42;;;;;;;13.07;8.77;;;11.70;99.90;;;;;;5040898;28;20457;-61
2023/05/26 01:31:08;;;;;;;17.27;9.30;;;11.70;99.90;;;;;;5044512;28;20437;-62
2023/05/26 01:33:35;;;;;;;17.20;8.97;;;11.70;99.90;;;;;;5030442;28;20425;-61
2023/05/26 01:36:01;;;;;;;12.47;8.93;;;11.60;99.90;;;;;;5046771;28;21149;-61
2023/05/26 01:38:27;;;;;;;12.43;8.80;;;11.60;99.90;;;;;;5038045;28;21446;-60
2023/05/26 01:41:21;;;;;;;16.60;9.90;;;11.60;99.90;;;;;;5045093;28;20426;-61
2023/05/26 01:44:03;;;;;;;14.53;9.07;;;11.60;99.90;;;;;;5021570;28;20968;-62
2023/05/26 01:46:43;;;;;;;17.20;9.17;;;11.50;99.90;;;;;;5042367;28;20974;-61
2023/05/26 01:49:11;;;;;;;12.90;9.13;;;11.50;99.90;;;;;;5053351;28;20812;-61
2023/05/26 01:51:39;;;;;;;12.90;8.60;;;11.50;99.90;;;;;;5046165;28;20425;-61
2023/05/26 01:54:11;;;;;;;13.73;9.20;;;11.40;99.90;;;;;;5039333;28;20465;-62
2023/05/26 01:56:38;;;;;;;17.60;8.70;;;11.40;99.90;;;;;;5040952;28;20527;-61
2023/05/26 01:59:04;;;;;;;13.73;8.50;;;11.40;99.90;;;;;;5045176;28;20532;-62
2023/05/26 02:01:30;;;;;;;17.00;10.27;;;11.40;99.90;;;;;;5043326;28;20605;-62
2023/05/26 02:03:55;;;;;;;16.90;9.50;;;11.30;99.90;;;;;;5042491;28;20528;-61
2023/05/26 02:06:21;;;;;;;13.07;8.93;;;11.40;99.90;;;;;;5040131;28;20665;-61
2023/05/26 02:08:47;;;;;;;13.73;9.20;;;11.30;99.90;;;;;;5043630;28;20663;-61
2023/05/26 02:11:13;;;;;;;22.10;9.03;;;11.30;99.90;;;;;;5041811;28;20426;-62
2023/05/26 02:13:39;;;;;;;18.83;8.93;;;11.30;99.90;;;;;;5034584;28;20425;-62
2023/05/26 02:16:05;;;;;;;14.47;9.03;;;11.20;99.90;;;;;;5044541;28;20183;-61
2023/05/26 02:18:30;;;;;;;18.47;9.93;;;11.20;99.90;;;;;;5044333;28;20453;-62
2023/05/26 02:20:56;;;;;;;19.43;9.10;;;11.20;99.90;;;;;;5041051;28;20179;-61
2023/05/26 02:23:22;;;;;;;12.43;8.60;;;11.20;99.90;;;;;;5040162;28;20194;-61
2023/05/26 02:25:47;;;;;;;17.10;9.20;;;11.10;99.90;;;;;;5043254;28;20260;-62
2023/05/26 02:28:13;;;;;;;16.63;8.70;;;11.10;99.90;;;;;;5044279;28;20179;-62
2023/05/26 02:30:38;;;;;;;17.13;9.40;;;11.10;99.90;;;;;;5037899;28;20246;-61
2023/05/26 02:33:05;;;;;;;13.47;9.17;;;11.10;99.90;;;;;;5024412;28;20616;-61
2023/05/26 02:35:31;;;;;;;15.43;9.27;;;11.00;99.90;;;;;;5043829;28;20171;-62
2023/05/26 02:37:57;;;;;;;14.20;8.87;;;11.00;99.90;;;;;;5043939;28;20422;-62
2023/05/26 02:40:22;;;;;;;12.90;9.07;;;11.00;99.90;;;;;;5038766;28;20191;-61
2023/05/26 02:42:48;;;;;;;13.30;8.80;;;11.00;99.90;;;;;;5043435;28;20578;-61
2023/05/26 02:45:13;;;;;;;11.10;7.90;;;10.90;99.90;;;;;;5038453;28;20189;-62
2023/05/26 02:47:39;;;;;;;16.13;9.37;;;10.90;99.90;;;;;;5048726;28;20171;-62
2023/05/26 02:50:05;;;;;;;15.27;10.40;;;10.90;99.90;;;;;;5041679;28;20199;-60
2023/05/26 02:52:31;;;;;;;12.83;8.83;;;10.80;99.90;;;;;;5046733;28;20426;-61
2023/05/26 02:54:57;;;;;;;13.87;9.13;;;10.80;99.90;;;;;;5043621;28;20436;-62
2023/05/26 02:57:22;;;;;;;17.70;9.53;;;10.80;99.90;;;;;;5045508;28;20179;-62
2023/05/26 02:59:48;;;;;;;13.87;8.40;;;10.80;99.90;;;;;;5044774;28;20245;-63
2023/05/26 03:02:14;;;;;;;15.97;9.00;;;10.70;99.90;;;;;;5039253;28;20313;-62
2023/05/26 03:04:39;;;;;;;16.10;8.77;;;10.70;99.90;;;;;;5046657;28;20624;-62
2023/05/26 03:07:07;;;;;;;18.70;9.50;;;10.70;99.90;;;;;;5048066;28;20302;-62
2023/05/26 03:09:34;;;;;;;13.77;8.63;;;10.70;99.90;;;;;;5046842;28;20229;-62
2023/05/26 03:11:59;;;;;;;15.87;9.50;;;10.60;99.90;;;;;;5046085;28;20439;-62
2023/05/26 03:14:25;;;;;;;14.50;9.70;;;10.60;99.90;;;;;;5048801;28;20609;-62
2023/05/26 03:16:51;;;;;;;17.87;10.43;;;10.60;99.90;;;;;;5049325;28;20259;-61
2023/05/26 03:19:17;;;;;;;14.37;8.60;;;10.60;99.90;;;;;;5044381;28;20214;-62
2023/05/26 03:21:44;;;;;;;14.27;9.53;;;10.50;99.90;;;;;;5042524;28;20429;-62
2023/05/26 03:24:09;;;;;;;11.97;8.13;;;10.50;99.90;;;;;;5042647;28;20198;-63
2023/05/26 03:26:35;;;;;;;10.77;8.17;;;10.50;99.90;;;;;;5048251;28;20997;-62
2023/05/26 03:29:00;;;;;;;13.33;8.77;;;10.40;99.90;;;;;;5047386;28;20776;-62
2023/05/26 03:31:27;;;;;;;14.40;8.80;;;10.40;99.90;;;;;;5045367;28;20182;-62
2023/05/26 03:33:52;;;;;;;13.40;8.80;;;10.40;99.90;;;;;;5041455;28;20227;-61
2023/05/26 03:36:18;;;;;;;14.43;9.80;;;10.40;99.90;;;;;;5045850;28;21114;-62
2023/05/26 03:38:44;;;;;;;13.20;8.33;;;10.40;99.90;;;;;;5045527;28;20195;-61
2023/05/26 03:41:09;;;;;;;11.97;9.33;;;10.40;99.90;;;;;;5047709;28;20179;-61
2023/05/26 03:43:35;;;;;;;14.63;9.23;;;10.40;99.90;;;;;;5038655;28;20575;-61
2023/05/26 03:46:00;;;;;;;17.03;9.50;;;10.30;99.90;;;;;;5043885;28;20242;-62
2023/05/26 03:48:26;;;;;;;12.83;8.93;;;10.40;99.90;;;;;;5047370;28;20199;-60
2023/05/26 03:50:52;;;;;;;16.67;10.87;;;10.30;99.90;;;;;;5044584;28;20183;-61
2023/05/26 03:53:17;;;;;;;17.40;9.63;;;10.30;99.90;;;;;;5033744;28;20222;-63
2023/05/26 03:55:43;;;;;;;15.00;10.03;;;10.30;99.90;;;;;;5034213;28;20210;-64
2023/05/26 03:58:09;;;;;;;16.77;9.10;;;10.30;99.90;;;;;;5034358;28;20187;-63
2023/05/26 04:00:35;;;;;;;17.43;9.00;;;10.30;99.90;;;;;;5039438;28;20191;-63
2023/05/26 04:03:01;;;;;;;14.43;9.20;;;10.30;99.90;;;;;;5038923;28;20464;-62
2023/05/26 04:05:27;;;;;;;16.93;9.80;;;10.30;99.90;;;;;;5036560;28;20254;-62
2023/05/26 04:07:52;;;;;;;13.43;9.40;;;10.30;99.90;;;;;;5044598;28;20457;-62
2023/05/26 04:10:18;;;;;;;18.07;9.23;;;10.30;99.90;;;;;;5041568;28;20895;-63
2023/05/26 04:12:44;;;;;;;13.00;9.50;;;10.30;99.90;;;;;;5021609;28;20186;-62
2023/05/26 04:15:10;;;;;;;16.33;10.00;;;10.30;99.90;;;;;;5036550;28;20178;-60
2023/05/26 04:17:36;;;;;;;13.93;9.87;;;10.30;99.90;;;;;;5038144;28;20179;-60
2023/05/26 04:20:15;;;;;;;17.40;9.50;;;10.30;99.90;;;;;;5043167;28;20610;-62
2023/05/26 04:22:41;;;;;;;17.67;9.27;;;10.30;99.90;;;;;;5039269;28;20937;-60
2023/05/26 04:25:07;;;;;;;16.37;11.27;;;10.40;99.90;;;;;;5038768;28;20445;-59
2023/05/26 04:27:35;;;;;;;14.23;9.27;;;10.40;99.90;;;;;;5039009;28;20465;-58
2023/05/26 04:30:02;;;;;;;14.30;9.23;;;10.40;99.90;;;;;;5038005;28;20465;-61
2023/05/26 04:32:28;;;;;;;17.80;9.83;;;10.30;99.90;;;;;;5041263;28;20517;-62
2023/05/26 04:34:55;;;;;;;16.63;9.60;;;10.30;99.90;;;;;;5028260;28;20430;-59
2023/05/26 04:37:20;;;;;;;13.87;9.40;;;10.40;99.90;;;;;;5038342;28;20513;-61
2023/05/26 04:39:46;;;;;;;13.23;9.03;;;10.40;99.90;;;;;;5030463;28;20471;-61
2023/05/26 04:42:12;;;;;;;16.50;10.23;;;10.40;99.90;;;;;;5038776;28;20183;-61
2023/05/26 04:44:38;;;;;;;15.60;9.43;;;10.40;99.90;;;;;;5023478;28;20214;-61
2023/05/26 04:47:08;;;;;;;16.60;9.20;;;10.50;99.90;;;;;;5023064;28;20592;-62
2023/05/26 04:49:37;;;;;;;12.97;9.67;;;10.50;99.90;;;;;;5026298;28;20265;-62
2023/05/26 04:52:03;;;;;;;18.20;9.70;;;10.50;99.90;;;;;;5030503;28;20426;-61
2023/05/26 04:54:29;;;;;;;19.67;9.83;;;10.60;99.90;;;;;;5025789;28;20430;-62
2023/05/26 04:56:55;;;;;;;17.50;10.30;;;10.60;99.90;;;;;;5034663;28;20962;-62
2023/05/26 04:59:27;;;;;;;14.23;9.63;;;10.70;99.90;;;;;;5037997;28;20814;-61
2023/05/26 05:01:52;;;;;;;16.63;9.47;;;10.80;99.90;;;;;;5039716;28;20179;-62
2023/05/26 05:04:18;;;;;;;17.53;10.33;;;10.80;99.90;;;;;;5042283;28;20530;-61
2023/05/26 05:06:44;;;;;;;16.17;10.13;;;10.90;99.90;;;;;;5043725;28;20203;-62
2023/05/26 05:09:10;;;;;;;16.27;10.30;;;11.00;99.90;;;;;;5040626;28;21040;-62
2023/05/26 05:11:35;;;;;;;15.40;9.23;;;11.00;99.90;;;;;;5044460;28;20175;-62
2023/05/26 05:14:01;;;;;;;20.67;10.43;;;11.10;99.90;;;;;;5043149;28;21015;-62
2023/05/26 05:16:26;;;;;;;15.80;10.13;;;11.10;99.90;;;;;;5043030;28;20189;-61
2023/05/26 05:18:53;;;;;;;19.07;10.30;;;11.20;99.90;;;;;;5040629;28;20191;-62
2023/05/26 05:21:19;;;;;;;13.47;9.97;;;11.20;99.90;;;;;;5040654;28;20171;-61
2023/05/26 05:23:45;;;;;;;21.50;11.43;;;11.30;99.90;;;;;;5040267;28;20425;-62
2023/05/26 05:26:11;;;;;;;20.97;11.77;;;11.40;99.90;;;;;;5045051;28;20441;-62
2023/05/26 05:28:37;;;;;;;16.67;11.50;;;11.40;99.90;;;;;;5044910;28;20552;-62
2023/05/26 05:31:03;;;;;;;18.47;11.60;;;11.50;99.90;;;;;;5037818;28;20528;-62
2023/05/26 05:33:28;;;;;;;18.73;11.40;;;11.60;99.90;;;;;;5044511;28;20246;-61
2023/05/26 05:35:54;;;;;;;20.63;11.80;;;11.70;99.90;;;;;;5044191;28;20266;-61
2023/05/26 05:38:20;;;;;;;17.90;11.80;;;11.70;99.90;;;;;;5041398;28;20207;-62
2023/05/26 05:40:45;;;;;;;16.70;12.17;;;11.80;99.90;;;;;;5039351;28;20278;-62
2023/05/26 05:43:11;;;;;;;21.10;13.30;;;11.90;99.90;;;;;;5042692;28;20233;-62
2023/05/26 05:45:36;;;;;;;22.87;14.33;;;12.00;99.90;;;;;;5041275;28;20172;-62
2023/05/26 05:48:02;;;;;;;20.53;13.17;;;12.10;99.90;;;;;;5041308;28;20255;-61
2023/05/26 05:50:27;;;;;;;21.63;13.90;;;12.10;99.90;;;;;;5038585;28;20178;-62
2023/05/26 05:52:53;;;;;;;28.43;15.30;;;12.20;99.90;;;;;;5041397;28;20228;-61
2023/05/26 05:55:19;;;;;;;31.20;15.90;;;12.30;99.90;;;;;;5040610;28;20179;-61
2023/05/26 05:57:44;;;;;;;25.80;14.60;;;12.40;99.90;;;;;;5045692;28;20171;-62
2023/05/26 06:00:11;;;;;;;26.27;14.10;;;12.50;99.90;;;;;;5039744;28;20210;-63
2023/05/26 06:02:37;;;;;;;24.27;14.80;;;12.50;99.90;;;;;;5043889;28;20171;-61
2023/05/26 06:05:03;;;;;;;26.63;14.80;;;12.60;99.90;;;;;;5044015;28;20433;-62
2023/05/26 06:07:29;;;;;;;23.97;14.43;;;12.70;99.90;;;;;;5041800;28;20562;-62
2023/05/26 06:09:55;;;;;;;26.43;16.20;;;12.80;99.90;;;;;;5043349;28;20445;-62
2023/05/26 06:12:21;;;;;;;30.40;15.67;;;12.90;99.90;;;;;;5043748;28;20976;-62
2023/05/26 06:14:46;;;;;;;24.97;13.70;;;13.00;99.90;;;;;;5040536;28;20426;-62
2023/05/26 06:17:12;;;;;;;21.27;14.00;;;13.10;99.90;;;;;;5043799;28;20190;-62
2023/05/26 06:19:37;;;;;;;42.53;14.80;;;13.20;99.90;;;;;;5045851;28;20210;-62
2023/05/26 06:22:03;;;;;;;25.20;13.20;;;13.30;99.90;;;;;;5049185;28;20210;-62
2023/05/26 06:24:29;;;;;;;23.17;14.00;;;13.40;99.90;;;;;;5045397;28;20198;-63
2023/05/26 06:26:54;;;;;;;27.93;14.20;;;13.60;99.90;;;;;;5047793;28;20198;-63
2023/05/26 06:29:20;;;;;;;22.60;12.33;;;13.70;99.90;;;;;;5043220;28;20202;-62
2023/05/26 06:31:46;;;;;;;23.87;11.23;;;13.80;99.90;;;;;;5046354;28;20171;-63
2023/05/26 06:34:11;;;;;;;16.53;10.70;;;13.90;99.90;;;;;;5045989;28;20258;-63
2023/05/26 06:36:37;;;;;;;20.60;11.17;;;14.00;99.30;;;;;;5048942;28;20175;-62
2023/05/26 06:39:02;;;;;;;24.60;10.13;;;14.20;97.90;;;;;;5045701;28;20222;-62
2023/05/26 06:41:28;;;;;;;22.90;9.90;;;14.30;97.00;;;;;;5047196;28;20684;-62
2023/05/26 06:43:54;;;;;;;17.90;9.53;;;14.40;93.80;;;;;;5047576;28;20551;-62
2023/05/26 06:46:20;;;;;;;17.50;9.60;;;14.50;93.10;;;;;;5041972;28;20191;-61
2023/05/26 06:48:45;;;;;;;18.60;8.73;;;14.50;92.00;;;;;;5041203;28;20460;-63
2023/05/26 06:51:11;;;;;;;14.50;8.70;;;14.70;90.20;;;;;;5046460;28;20179;-62
2023/05/26 06:53:38;;;;;;;13.33;8.73;;;14.80;87.80;;;;;;5050544;28;20199;-61
2023/05/26 06:56:05;;;;;;;16.20;8.00;;;14.90;84.50;;;;;;5050516;28;20648;-63
2023/05/26 06:58:31;;;;;;;14.33;8.53;;;15.00;81.80;;;;;;5041388;28;20448;-61
2023/05/26 07:01:00;;;;;;;13.70;8.60;;;15.20;80.10;;;;;;5047425;28;20440;-62
2023/05/26 07:03:26;;;;;;;22.20;8.00;;;15.30;80.30;;;;;;5047610;28;20429;-63
2023/05/26 07:05:53;;;;;;;13.60;7.63;;;15.40;77.70;;;;;;5046261;28;20460;-62
2023/05/26 07:08:19;;;;;;;15.10;7.53;;;15.60;73.80;;;;;;5042240;28;20429;-62
2023/05/26 07:10:45;;;;;;;14.33;8.17;;;15.70;73.40;;;;;;5041628;28;20840;-63
2023/05/26 07:13:10;;;;;;;16.33;8.07;;;15.80;71.90;;;;;;5048186;28;20175;-63
2023/05/26 07:15:36;;;;;;;15.53;7.47;;;15.90;71.40;;;;;;5045463;28;20183;-63
2023/05/26 07:18:01;;;;;;;14.67;8.50;;;16.00;70.70;;;;;;5046118;28;20237;-60
2023/05/26 07:20:27;;;;;;;15.43;7.87;;;16.10;70.50;;;;;;5046880;28;20210;-62
2023/05/26 07:22:53;;;;;;;14.30;7.33;;;16.30;69.30;;;;;;5046115;28;20175;-63
2023/05/26 07:25:18;;;;;;;10.97;6.60;;;16.40;69.20;;;;;;5046707;28;20171;-62
2023/05/26 07:27:44;;;;;;;8.33;6.40;;;16.50;68.40;;;;;;5047377;28;20326;-62
2023/05/26 07:30:10;;;;;;;17.80;6.83;;;16.60;67.50;;;;;;5047221;28;20210;-63
2023/05/26 07:32:36;;;;;;;15.17;6.70;;;16.70;66.80;;;;;;5044343;28;20230;-63
2023/05/26 07:35:01;;;;;;;11.20;6.57;;;16.90;66.10;;;;;;5045762;28;20429;-62
2023/05/26 07:37:27;;;;;;;9.37;6.73;;;17.00;65.10;;;;;;5047792;28;20175;-63
2023/05/26 07:39:53;;;;;;;10.60;6.13;;;17.10;64.10;;;;;;5043748;28;20227;-63
2023/05/26 07:42:18;;;;;;;14.20;7.27;;;17.20;63.80;;;;;;5038615;28;20265;-63
2023/05/26 07:44:44;;;;;;;11.93;6.70;;;17.30;63.50;;;;;;5044098;28;20183;-63
2023/05/26 07:47:09;;;;;;;12.87;6.87;;;17.40;63.80;;;;;;5049157;28;20210;-63
2023/05/26 07:49:35;;;;;;;10.70;6.47;;;17.50;63.60;;;;;;5047234;28;20820;-63
2023/05/26 07:52:00;;;;;;;12.00;6.67;;;17.50;63.30;;;;;;5043676;28;20190;-63
2023/05/26 07:54:26;;;;;;;14.80;7.30;;;17.60;63.50;;;;;;5047909;28;20179;-63
2023/05/26 07:56:51;;;;;;;13.63;6.77;;;17.70;63.30;;;;;;5041589;28;20686;-63
2023/05/26 07:59:17;;;;;;;12.20;6.90;;;17.80;63.00;;;;;;5042919;28;20229;-63
2023/05/26 08:01:43;;;;;;;13.67;6.90;;;17.80;63.20;;;;;;5045891;28;20175;-63
2023/05/26 08:04:08;;;;;;;14.53;6.37;;;17.90;63.20;;;;;;5045327;28;20211;-63
2023/05/26 08:06:35;;;;;;;11.47;6.47;;;18.00;63.50;;;;;;5048183;28;20191;-64
2023/05/26 08:09:01;;;;;;;15.53;7.80;;;18.10;63.00;;;;;;5043503;28;20231;-63
2023/05/26 08:11:27;;;;;;;10.47;6.47;;;18.20;62.60;;;;;;5042318;28;20422;-63
2023/05/26 08:13:53;;;;;;;13.17;6.73;;;18.20;60.10;;;;;;5043025;28;20448;-64
2023/05/26 08:16:19;;;;;;;11.57;6.80;;;18.10;59.40;;;;;;5043732;28;20237;-63
2023/05/26 08:18:44;;;;;;;11.80;6.40;;;18.10;60.20;;;;;;5040902;28;20203;-62
2023/05/26 08:21:10;;;;;;;15.03;7.00;;;18.10;60.10;;;;;;5046825;28;20434;-63
2023/05/26 08:23:36;;;;;;;10.00;5.70;;;18.10;59.60;;;;;;5044394;28;20179;-63
2023/05/26 08:26:02;;;;;;;13.00;6.17;;;18.20;60.90;;;;;;5043403;28;20207;-63
2023/05/26 08:28:27;;;;;;;9.70;5.83;;;18.30;61.80;;;;;;5042733;28;20472;-64
2023/05/26 08:30:53;;;;;;;13.67;5.90;;;18.50;61.90;;;;;;5046541;28;20232;-64
2023/05/26 08:33:19;;;;;;;13.00;6.13;;;18.60;62.00;;;;;;5045319;28;20176;-64
2023/05/26 08:35:44;;;;;;;14.30;6.00;;;18.70;61.80;;;;;;5044843;28;20633;-64
2023/05/26 08:38:10;;;;;;;9.40;6.13;;;18.90;61.30;;;;;;5042484;28;20183;-63
2023/05/26 08:40:35;;;;;;;13.73;6.50;;;19.00;60.30;;;;;;5042745;28;20171;-63
2023/05/26 08:43:09;;;;;;;10.73;6.00;;;19.10;60.30;;;;;;5046765;28;20313;-64
2023/05/26 08:45:37;;;;;;;9.10;5.73;;;19.20;59.70;;;;;;5044427;28;20176;-63
2023/05/26 08:48:05;;;;;;;15.13;5.77;;;19.30;59.40;;;;;;5046704;28;20787;-63
2023/05/26 08:50:31;;;;;;;11.00;5.60;;;19.40;58.80;;;;;;5039639;28;20437;-64
2023/05/26 08:52:59;;;;;;;10.80;6.00;;;19.50;58.30;;;;;;5046323;28;20430;-63
2023/05/26 08:55:26;;;;;;;12.77;5.70;;;19.60;56.70;;;;;;5042357;28;20293;-63
2023/05/26 08:57:52;;;;;;;7.03;5.27;;;19.70;57.80;;;;;;5038914;28;20441;-64
2023/05/26 09:00:18;;;;;;;6.77;5.13;;;19.80;58.10;;;;;;5043009;28;20468;-65
2023/05/26 09:02:45;;;;;;;7.93;5.50;;;19.90;57.80;;;;;;5040928;28;20500;-64
2023/05/26 09:05:10;;;;;;;14.03;5.90;;;20.10;57.60;;;;;;5044282;28;20480;-64
2023/05/26 09:07:36;;;;;;;14.20;5.57;;;20.10;57.10;;;;;;5043626;28;21007;-64
2023/05/26 09:10:25;;;;;;;11.30;6.17;;;20.30;57.10;;;;;;5043518;28;20248;-64
2023/05/26 09:13:05;;;;;;;7.23;5.20;;;20.40;56.80;;;;;;5043628;28;20213;-63
2023/05/26 09:15:32;;;;;;;11.87;6.33;;;20.50;55.80;;;;;;5040799;28;20929;-64
2023/05/26 09:18:11;;;;;;;16.20;6.17;;;20.60;56.20;;;;;;5040885;28;20418;-64
2023/05/26 09:20:46;;;;;;;9.90;5.43;;;20.70;55.90;;;;;;5044824;28;20429;-64
2023/05/26 09:23:13;;;;;;;11.97;5.80;;;20.80;55.70;;;;;;5045149;28;20432;-64
2023/05/26 09:25:40;;;;;;;11.40;6.60;;;20.80;55.00;;;;;;5043750;28;20433;-64
2023/05/26 09:28:08;;;;;;;7.70;5.13;;;20.90;55.60;;;;;;5042091;28;20441;-63
2023/05/26 09:30:41;;;;;;;8.87;5.50;;;21.00;55.50;;;;;;5041847;28;20445;-62
2023/05/26 09:33:10;;;;;;;9.00;5.43;;;21.10;53.80;;;;;;5042556;28;20512;-64
2023/05/26 09:35:40;;;;;;;8.67;6.10;;;21.20;53.20;;;;;;5038748;28;20495;-64
2023/05/26 09:38:08;;;;;;;10.70;6.10;;;21.30;53.80;;;;;;5044987;28;20441;-65
2023/05/26 09:40:34;;;;;;;10.00;5.63;;;21.40;54.00;;;;;;5039322;28;20438;-64
2023/05/26 09:43:01;;;;;;;9.33;5.07;;;21.40;53.90;;;;;;5038541;28;20553;-64
2023/05/26 09:45:34;;;;;;;12.40;5.70;;;21.50;54.10;;;;;;5041061;28;20592;-64
2023/05/26 09:48:01;;;;;;;8.40;5.90;;;21.60;54.40;;;;;;5040531;28;20437;-63
2023/05/26 09:50:33;;;;;;;8.50;5.67;;;21.70;54.00;;;;;;5038524;28;20484;-63
2023/05/26 09:53:00;;;;;;;10.83;5.70;;;21.80;54.10;;;;;;5042371;28;20902;-65
2023/05/26 09:55:26;;;;;;;10.37;5.80;;;21.90;54.20;;;;;;5036829;28;20433;-63
2023/05/26 09:57:53;;;;;;;11.50;6.93;;;22.00;54.20;;;;;;5045868;28;20437;-64
2023/05/26 10:00:20;;;;;;;11.40;6.13;;;22.10;54.30;;;;;;5039666;28;20197;-64
2023/05/26 10:02:47;;;;;;;10.07;6.00;;;22.20;53.20;;;;;;5046259;28;20421;-64
2023/05/26 10:05:15;;;;;;;9.90;5.60;;;22.20;52.00;;;;;;5039611;28;20433;-63
2023/05/26 10:07:43;;;;;;;8.97;5.60;;;22.20;52.00;;;;;;5036975;28;20466;-64
2023/05/26 10:10:13;;;;;;;8.10;5.23;;;22.30;53.00;;;;;;5050374;28;20485;-63
2023/05/26 10:12:40;;;;;;;14.70;6.17;;;22.40;52.50;;;;;;5020237;28;20437;-64
2023/05/26 10:15:06;;;;;;;9.07;5.37;;;22.50;52.50;;;;;;5039561;28;20426;-63
2023/05/26 10:17:31;;;;;;;13.23;5.73;;;22.50;52.80;;;;;;5043897;28;20965;-63
2023/05/26 10:19:58;;;;;;;8.90;5.80;;;22.70;53.70;;;;;;5043481;28;20215;-64
2023/05/26 10:22:52;;;;;;;7.90;5.73;;;22.80;52.60;;;;;;5043224;28;20178;-64
2023/05/26 10:25:28;;;;;;;6.80;5.13;;;22.90;50.70;;;;;;5041747;28;20477;-63
2023/05/26 10:28:04;;;;;;;13.80;5.70;;;23.00;51.00;;;;;;5042954;28;20487;-65
2023/05/26 10:30:31;;;;;;;11.47;5.50;;;22.90;50.40;;;;;;5039792;28;20428;-64
2023/05/26 10:33:07;;;;;;;10.27;6.03;;;22.80;48.00;;;;;;5043521;28;20874;-63
2023/05/26 10:35:32;;;;;;;7.77;5.70;;;22.70;49.40;;;;;;5036648;28;20429;-63
2023/05/26 10:38:01;;;;;;;9.93;5.30;;;22.70;50.60;;;;;;5045353;28;20437;-63
2023/05/26 10:40:37;;;;;;;9.37;5.90;;;22.80;50.90;;;;;;5040546;28;20245;-64
2023/05/26 10:43:22;;;;;;;9.47;5.67;;;23.00;49.70;;;;;;5035011;28;21018;-61
2023/05/26 10:45:59;;;;;;;8.93;5.70;;;23.10;49.30;;;;;;5035151;28;20512;-62
2023/05/26 10:48:32;;;;;;;8.70;5.43;;;23.30;49.10;;;;;;5037776;28;20445;-64
2023/05/26 10:51:24;;;;;;;7.27;5.20;;;23.50;49.10;;;;;;5040054;28;20511;-63
2023/05/26 10:53:51;;;;;;;9.43;5.83;;;23.70;48.70;;;;;;5038558;28;20445;-62
2023/05/26 10:56:18;;;;;;;8.00;5.70;;;23.90;50.40;;;;;;5041317;28;20441;-63
2023/05/26 10:58:48;;;;;;;7.60;5.70;;;24.00;48.90;;;;;;5035494;28;20808;-62
2023/05/26 11:01:20;;;;;;;7.30;5.67;;;23.90;48.20;;;;;;5033997;28;20449;-65
2023/05/26 11:03:55;;;;;;;7.90;5.50;;;24.00;48.70;;;;;;5028027;28;20425;-59
2023/05/26 11:06:40;;;;;;;8.50;5.27;;;24.10;48.80;;;;;;5043920;28;20469;-59
2023/05/26 11:09:08;;;;;;;12.87;5.47;;;24.30;49.50;;;;;;5042908;28;20445;-61
2023/05/26 11:11:38;;;;;;;12.60;5.53;;;24.40;49.00;;;;;;5045325;28;20433;-61
2023/05/26 11:14:09;;;;;;;7.00;5.20;;;24.50;48.10;;;;;;5045383;28;21009;-64
2023/05/26 11:16:42;;;;;;;9.80;5.47;;;24.60;48.30;;;;;;5035079;28;20437;-59
2023/05/26 11:19:10;;;;;;;7.97;5.13;;;24.60;48.70;;;;;;5036820;28;20546;-59
2023/05/26 11:21:37;;;;;;;10.57;6.17;;;24.80;48.20;;;;;;5042713;28;20795;-58
2023/05/26 11:24:03;;;;;;;11.93;5.93;;;24.90;46.80;;;;;;5035524;28;21549;-62
2023/05/26 11:26:30;;;;;;;8.57;5.83;;;25.00;47.90;;;;;;5034542;28;20670;-63
2023/05/26 11:28:57;;;;;;;7.40;5.33;;;25.10;47.40;;;;;;5035401;28;21034;-63
2023/05/26 11:31:27;;;;;;;10.87;5.47;;;25.10;46.70;;;;;;5041942;28;20810;-64
2023/05/26 11:33:54;;;;;;;8.83;5.60;;;25.20;47.10;;;;;;5042818;28;20429;-63
2023/05/26 11:36:20;;;;;;;10.40;6.40;;;25.20;45.90;;;;;;5039960;28;20520;-63
2023/05/26 11:38:50;;;;;;;7.67;6.20;;;25.10;43.90;;;;;;5046206;28;20487;-61
2023/05/26 11:41:16;;;;;;;8.93;5.50;;;25.10;46.20;;;;;;5044515;28;20452;-63
2023/05/26 11:43:44;;;;;;;10.00;6.07;;;25.20;46.80;;;;;;5045269;28;20433;-63
2023/05/26 11:46:11;;;;;;;13.77;5.77;;;25.40;48.60;;;;;;5047317;28;20191;-62
2023/05/26 11:48:42;;;;;;;7.90;5.73;;;25.50;48.50;;;;;;5032247;28;21432;-62
2023/05/26 11:51:08;;;;;;;9.20;5.67;;;25.30;47.40;;;;;;5038080;28;20853;-63
2023/05/26 11:53:34;;;;;;;8.93;5.87;;;24.90;47.10;;;;;;5048309;28;20437;-63
2023/05/26 11:56:11;;;;;;;7.77;5.10;;;24.50;47.60;;;;;;5047804;28;20437;-63
2023/05/26 11:58:47;;;;;;;8.90;5.70;;;24.10;48.00;;;;;;5045740;28;20448;-62
2023/05/26 12:01:13;;;;;;;8.53;5.00;;;23.70;48.00;;;;;;5045011;28;20464;-63
2023/05/26 12:03:49;;;;;;;7.20;5.30;;;23.70;48.50;;;;;;5044399;28;20822;-63
2023/05/26 12:06:20;;;;;;;11.20;4.90;;;24.00;49.70;;;;;;5028347;28;20458;-59
2023/05/26 12:09:06;;;;;;;7.60;5.10;;;24.50;48.70;;;;;;5038156;28;21050;-59
2023/05/26 12:11:33;;;;;;;14.50;5.50;;;25.00;47.20;;;;;;5042126;28;20424;-60
2023/05/26 12:14:04;;;;;;;6.90;4.77;;;25.50;46.80;;;;;;5043649;28;20441;-59
2023/05/26 12:16:35;;;;;;;11.17;5.40;;;25.90;47.10;;;;;;5042601;28;20926;-59
2023/05/26 12:19:06;;;;;;;9.27;5.20;;;26.20;47.10;;;;;;5039319;28;20460;-60
2023/05/26 12:21:42;;;;;;;8.57;4.90;;;26.50;47.00;;;;;;5040744;28;20428;-59
2023/05/26 12:24:08;;;;;;;10.70;5.33;;;26.70;45.10;;;;;;5045630;28;20451;-59
2023/05/26 12:26:34;;;;;;;10.47;5.93;;;26.80;44.90;;;;;;5045996;28;20933;-59
2023/05/26 12:29:06;;;;;;;7.57;5.37;;;27.00;44.50;;;;;;5040775;28;20468;-60
2023/05/26 12:31:39;;;;;;;8.97;5.80;;;27.20;44.30;;;;;;5028644;28;20173;-59
2023/05/26 12:34:05;;;;;;;6.00;5.20;;;27.40;45.30;;;;;;5035191;28;20183;-59
2023/05/26 12:36:31;;;;;;;6.50;5.10;;;27.50;45.10;;;;;;5034009;28;20175;-59
2023/05/26 12:38:57;;;;;;;13.80;5.47;;;27.30;44.10;;;;;;5037895;28;20201;-63
2023/05/26 12:41:22;;;;;;;8.97;5.47;;;27.20;43.60;;;;;;5036537;28;20187;-63